createdAt,value
2019-03-08T00:01:37.085Z,54.20
2019-03-08T00:04:08.107Z,54.50
2019-03-08T00:06:39.042Z,54.47
2019-03-08T00:09:10.042Z,54.42
2019-03-08T00:11:41.130Z,54.46
2019-03-08T00:14:12.894Z,54.69
2019-03-08T00:16:44.959Z,54.55
2019-03-08T00:19:15.850Z,54.73
2019-03-08T00:21:46.774Z,54.64
2019-03-08T00:24:17.689Z,54.82
2019-03-08T00:26:48.633Z,54.84
2019-03-08T00:29:19.720Z,54.83
2019-03-08T00:31:50.729Z,54.80
2019-03-08T00:34:21.692Z,55.14
2019-03-08T00:36:52.636Z,55.08
2019-03-08T00:39:23.574Z,55.24
2019-03-08T00:41:54.759Z,55.46
2019-03-08T00:44:25.650Z,55.59
2019-03-08T00:46:56.630Z,55.57
2019-03-08T00:49:27.605Z,55.62
2019-03-08T00:51:58.528Z,55.65
2019-03-08T00:54:29.744Z,55.81
2019-03-08T00:57:00.737Z,55.91
2019-03-08T00:59:31.653Z,56.13
2019-03-08T01:02:02.591Z,56.10
2019-03-08T01:04:34.583Z,56.30
2019-03-08T01:07:05.589Z,56.35
2019-03-08T01:09:36.494Z,56.49
2019-03-08T01:12:07.621Z,56.39
2019-03-08T01:14:39.459Z,56.61
2019-03-08T01:17:10.588Z,56.64
2019-03-08T01:19:41.637Z,56.85
2019-03-08T01:22:12.570Z,56.93
2019-03-08T01:24:43.486Z,56.89
2019-03-08T01:27:14.445Z,56.90
2019-03-08T01:29:45.388Z,57.15
2019-03-08T01:32:16.413Z,57.21
2019-03-08T01:34:47.341Z,57.28
2019-03-08T01:37:18.268Z,57.59
2019-03-08T01:39:49.167Z,57.65
2019-03-08T01:42:20.126Z,57.57
2019-03-08T01:44:51.123Z,57.60
2019-03-08T01:47:23.194Z,57.69
2019-03-08T01:49:54.118Z,57.83
2019-03-08T01:52:26.128Z,57.88
2019-03-08T01:54:57.115Z,58.06
2019-03-08T01:57:28.070Z,58.25
2019-03-08T01:59:59.008Z,58.35
2019-03-08T02:02:29.943Z,58.42
2019-03-08T02:05:00.861Z,58.52
2019-03-08T02:07:33.273Z,58.52
2019-03-08T02:10:07.089Z,58.67
2019-03-08T02:12:38.087Z,58.71
2019-03-08T02:15:15.255Z,58.70
2019-03-08T02:17:46.327Z,59.04
2019-03-08T02:20:20.011Z,59.08
2019-03-08T02:22:51.036Z,59.22
2019-03-08T02:25:22.030Z,59.20
2019-03-08T02:27:52.944Z,59.36
2019-03-08T02:30:23.835Z,59.61
2019-03-08T02:32:54.851Z,59.83
2019-03-08T02:35:25.744Z,59.84
2019-03-08T02:37:56.707Z,59.93
2019-03-08T02:40:29.752Z,60.19
2019-03-08T02:43:01.505Z,60.23
2019-03-08T02:45:32.477Z,60.29
2019-03-08T02:48:03.432Z,60.17
2019-03-08T02:50:34.443Z,60.28
2019-03-08T02:53:05.366Z,60.41
2019-03-08T02:55:36.459Z,60.57
2019-03-08T02:58:07.419Z,60.72
2019-03-08T03:00:44.520Z,60.81
2019-03-08T03:03:15.606Z,61.03
2019-03-08T03:05:46.536Z,61.19
2019-03-08T03:08:17.550Z,61.28
2019-03-08T03:10:48.446Z,61.34
2019-03-08T03:13:19.478Z,61.61
2019-03-08T03:15:51.230Z,61.62
2019-03-08T03:18:22.626Z,61.77
2019-03-08T03:20:53.534Z,62.00
2019-03-08T03:23:24.552Z,62.07
2019-03-08T03:25:55.451Z,62.21
2019-03-08T03:28:26.393Z,62.42
2019-03-08T03:30:57.696Z,62.38
2019-03-08T03:33:28.646Z,62.65
2019-03-08T03:35:59.646Z,62.83
2019-03-08T03:38:30.697Z,62.82
2019-03-08T03:41:01.711Z,63.11
2019-03-08T03:43:33.014Z,63.25
2019-03-08T03:46:03.903Z,63.43
2019-03-08T03:48:34.864Z,63.48
2019-03-08T03:51:05.782Z,63.63
2019-03-08T03:53:36.794Z,63.62
2019-03-08T03:56:08.129Z,63.73
2019-03-08T03:58:39.096Z,63.93
2019-03-08T04:01:17.668Z,64.00
2019-03-08T04:03:48.622Z,64.18
2019-03-08T04:06:19.517Z,64.17
2019-03-08T04:08:50.474Z,64.28
2019-03-08T04:11:21.374Z,64.18
2019-03-08T04:13:52.329Z,64.45
2019-03-08T04:16:24.169Z,64.61
2019-03-08T04:18:55.533Z,64.77
2019-03-08T04:21:26.361Z,64.94
2019-03-08T04:23:57.183Z,65.02
2019-03-08T04:26:29.197Z,65.02
2019-03-08T04:29:00.152Z,65.24
2019-03-08T04:31:31.444Z,65.14
2019-03-08T04:34:04.008Z,65.22
2019-03-08T04:36:35.106Z,65.35
2019-03-08T04:39:06.311Z,65.45
2019-03-08T04:41:37.449Z,65.41
2019-03-08T04:44:08.711Z,65.49
2019-03-08T04:46:39.768Z,65.45
2019-03-08T04:49:10.700Z,65.50
2019-03-08T04:51:41.693Z,65.59
2019-03-08T04:54:12.652Z,65.58
2019-03-08T04:56:43.720Z,65.37
2019-03-08T04:59:14.669Z,65.61
2019-03-08T05:01:45.576Z,65.52
2019-03-08T05:04:16.661Z,65.76
2019-03-08T05:06:47.560Z,65.71
2019-03-08T05:09:19.319Z,65.62
2019-03-08T05:11:50.224Z,65.91
2019-03-08T05:14:21.189Z,66.09
2019-03-08T05:16:53.005Z,66.07
2019-03-08T05:19:24.183Z,66.08
2019-03-08T05:21:55.187Z,66.20
2019-03-08T05:24:26.141Z,66.24
2019-03-08T05:26:57.120Z,65.98
2019-03-08T05:29:28.158Z,65.80
2019-03-08T05:31:59.079Z,65.41
2019-03-08T05:34:30.039Z,65.11
2019-03-08T05:37:01.027Z,64.97
2019-03-08T05:39:31.996Z,64.91
2019-03-08T05:42:02.906Z,64.72
2019-03-08T05:44:33.927Z,64.65
2019-03-08T05:47:04.943Z,64.08
2019-03-08T05:49:35.923Z,64.03
2019-03-08T05:52:06.819Z,63.81
2019-03-08T05:54:37.841Z,63.74
2019-03-08T05:57:08.786Z,63.35
2019-03-08T05:59:40.525Z,63.29
2019-03-08T06:02:11.407Z,62.84
2019-03-08T06:04:42.440Z,62.73
2019-03-08T06:07:13.375Z,62.66
2019-03-08T06:09:44.207Z,62.65
2019-03-08T06:12:15.386Z,62.14
2019-03-08T06:14:47.392Z,61.65
2019-03-08T06:17:19.293Z,61.47
2019-03-08T06:19:50.304Z,61.01
2019-03-08T06:22:21.308Z,60.88
2019-03-08T06:24:52.586Z,60.70
2019-03-08T06:27:23.523Z,60.64
2019-03-08T06:29:55.036Z,60.56
2019-03-08T06:32:25.985Z,60.43
2019-03-08T06:34:57.096Z,60.61
2019-03-08T06:37:29.316Z,60.48
2019-03-08T06:40:00.305Z,60.59
2019-03-08T06:42:31.214Z,60.38
2019-03-08T06:45:02.194Z,59.76
2019-03-08T06:47:33.235Z,59.88
2019-03-08T06:50:06.775Z,59.90
2019-03-08T06:52:37.738Z,59.55
2019-03-08T06:55:11.021Z,59.69
2019-03-08T06:57:42.000Z,59.47
2019-03-08T07:00:30.283Z,59.34
2019-03-08T07:03:01.355Z,59.21
2019-03-08T07:05:32.325Z,59.17
2019-03-08T07:08:03.236Z,58.74
2019-03-08T07:10:36.230Z,58.51
2019-03-08T07:13:07.136Z,58.21
2019-03-08T07:15:38.218Z,58.12
2019-03-08T07:18:12.871Z,58.03
2019-03-08T07:20:44.513Z,57.54
2019-03-08T07:23:27.702Z,57.34
2019-03-08T07:26:07.171Z,57.10
2019-03-08T07:28:43.590Z,56.69
2019-03-08T07:31:32.503Z,56.60
2019-03-08T07:34:05.197Z,56.03
2019-03-08T07:36:44.722Z,55.85
2019-03-08T07:39:23.251Z,55.29
2019-03-08T07:42:01.964Z,54.63
2019-03-08T07:44:34.572Z,54.41
2019-03-08T07:47:13.038Z,54.22
2019-03-08T07:49:48.218Z,53.83
2019-03-08T07:52:37.444Z,53.53
2019-03-08T07:55:19.543Z,53.39
2019-03-08T07:57:54.961Z,53.31
2019-03-08T08:00:27.580Z,53.25
2019-03-08T08:03:05.979Z,53.09
2019-03-08T08:05:58.260Z,52.91
2019-03-08T08:08:35.937Z,52.64
2019-03-08T08:11:08.528Z,52.58
2019-03-08T08:13:59.011Z,52.77
2019-03-08T08:16:31.685Z,52.58
2019-03-08T08:19:14.437Z,52.18
2019-03-08T08:22:04.195Z,51.85
2019-03-08T08:24:52.791Z,51.62
2019-03-08T08:27:25.337Z,51.42
2019-03-08T08:30:03.932Z,51.28
2019-03-08T08:32:40.788Z,50.86
2019-03-08T08:35:16.461Z,50.76
2019-03-08T08:37:55.467Z,50.59
2019-03-08T08:40:31.080Z,50.50
2019-03-08T08:43:04.176Z,50.63
2019-03-08T08:45:43.376Z,50.13
2019-03-08T08:48:24.952Z,49.38
2019-03-08T08:51:12.653Z,49.02
2019-03-08T08:54:03.597Z,48.35
2019-03-08T08:56:52.195Z,47.50
2019-03-08T08:59:39.778Z,47.32
2019-03-08T09:02:18.383Z,47.12
2019-03-08T09:04:53.913Z,47.03
2019-03-08T09:07:33.352Z,46.53
2019-03-08T09:10:08.848Z,46.16
2019-03-08T09:12:44.518Z,46.19
2019-03-08T09:15:17.350Z,46.05
2019-03-08T09:18:06.189Z,45.85
2019-03-08T09:20:39.830Z,45.57
2019-03-08T09:23:12.721Z,45.56
2019-03-08T09:26:01.660Z,45.42
2019-03-08T09:28:34.343Z,44.85
2019-03-08T09:31:18.998Z,44.30
2019-03-08T09:33:54.388Z,44.20
2019-03-08T09:36:32.798Z,44.13
2019-03-08T09:39:05.674Z,44.06
2019-03-08T09:41:57.493Z,43.53
2019-03-08T09:44:32.925Z,43.72
2019-03-08T09:47:05.493Z,43.51
2019-03-08T09:49:43.006Z,43.57
2019-03-08T09:52:15.480Z,43.54
2019-03-08T09:54:50.982Z,43.75
2019-03-08T09:57:32.255Z,44.01
2019-03-08T10:00:11.300Z,43.94
2019-03-08T10:02:56.267Z,43.85
2019-03-08T10:05:31.597Z,43.46
2019-03-08T10:08:20.479Z,43.48
2019-03-08T10:10:55.998Z,43.06
2019-03-08T10:13:28.624Z,43.40
2019-03-08T10:16:01.170Z,43.28
2019-03-08T10:18:33.919Z,43.31
2019-03-08T10:21:13.322Z,42.98
2019-03-08T10:23:57.532Z,42.68
2019-03-08T10:26:31.632Z,42.42
2019-03-08T10:29:13.594Z,42.32
2019-03-08T10:31:46.501Z,42.64
2019-03-08T10:34:25.375Z,42.94
2019-03-08T10:37:02.836Z,43.01
2019-03-08T10:39:41.709Z,43.26
2019-03-08T10:42:21.161Z,43.14
2019-03-08T10:44:53.976Z,42.29
2019-03-08T10:47:26.883Z,42.58
2019-03-08T10:50:20.499Z,42.50
2019-03-08T10:53:01.851Z,42.09
2019-03-08T10:55:40.285Z,41.50
2019-03-08T10:58:22.403Z,42.18
2019-03-08T11:00:58.138Z,42.04
2019-03-08T11:03:31.624Z,41.96
2019-03-08T11:06:21.747Z,41.84
2019-03-08T11:08:54.699Z,42.10
2019-03-08T11:11:30.322Z,41.86
2019-03-08T11:14:03.075Z,42.20
2019-03-08T11:16:52.055Z,41.96
2019-03-08T11:19:27.818Z,41.96
2019-03-08T11:22:11.383Z,42.69
2019-03-08T11:25:07.791Z,41.63
2019-03-08T11:27:33.631Z,41.30
2019-03-08T11:30:15.815Z,41.20
2019-03-08T11:33:06.793Z,42.24
2019-03-08T11:35:39.888Z,40.89
2019-03-08T11:38:14.848Z,40.46
2019-03-08T11:40:50.393Z,42.01
2019-03-08T11:43:35.470Z,42.94
2019-03-08T11:46:20.579Z,42.86
2019-03-08T11:48:56.214Z,43.53
2019-03-08T11:51:34.980Z,43.28
2019-03-08T11:54:11.242Z,43.69
2019-03-08T11:56:56.209Z,43.89
2019-03-08T11:59:36.667Z,43.76
2019-03-08T12:02:12.724Z,43.70
2019-03-08T12:04:45.602Z,45.30
2019-03-08T12:07:22.250Z,44.05
2019-03-08T12:10:03.915Z,43.88
2019-03-08T12:12:49.177Z,44.00
2019-03-08T12:15:37.365Z,44.19
2019-03-08T12:18:10.558Z,43.95
2019-03-08T12:20:46.568Z,44.24
2019-03-08T12:23:22.782Z,44.84
2019-03-08T12:26:12.069Z,44.95
2019-03-08T12:28:44.846Z,45.30
2019-03-08T12:31:17.784Z,45.41
2019-03-08T12:33:56.693Z,45.32
2019-03-08T12:36:29.434Z,45.16
2019-03-08T12:39:18.949Z,44.80
2019-03-08T12:41:51.736Z,44.92
2019-03-08T12:44:24.612Z,44.87
2019-03-08T12:46:57.500Z,44.50
2019-03-08T12:49:30.411Z,44.78
2019-03-08T12:52:03.254Z,44.92
2019-03-08T12:54:36.361Z,45.18
2019-03-08T12:57:15.558Z,45.56
2019-03-08T12:59:54.806Z,45.53
2019-03-08T13:02:36.547Z,45.56
2019-03-08T13:05:09.652Z,46.13
2019-03-08T13:08:00.733Z,46.20
2019-03-08T13:10:32.279Z,46.20
2019-03-08T13:13:03.596Z,46.57
2019-03-08T13:15:34.965Z,46.52
2019-03-08T13:18:06.433Z,46.82
2019-03-08T13:20:38.522Z,47.02
2019-03-08T13:23:09.943Z,47.18
2019-03-08T13:25:42.239Z,47.16
2019-03-08T13:28:13.619Z,47.36
2019-03-08T13:30:45.023Z,47.24
2019-03-08T13:33:16.570Z,47.35
2019-03-08T13:35:47.844Z,47.43
2019-03-08T13:38:18.847Z,47.46
2019-03-08T13:40:49.801Z,47.45
2019-03-08T13:43:21.001Z,47.52
2019-03-08T13:45:53.817Z,48.09
2019-03-08T13:48:25.240Z,48.78
2019-03-08T13:50:56.278Z,48.87
2019-03-08T13:53:27.255Z,49.20
2019-03-08T13:55:58.507Z,49.19
2019-03-08T13:58:29.592Z,49.54
2019-03-08T14:01:00.559Z,49.71
2019-03-08T14:03:32.826Z,49.99
2019-03-08T14:06:03.794Z,50.18
2019-03-08T14:08:34.706Z,50.06
2019-03-08T14:11:05.866Z,50.30
2019-03-08T14:13:37.857Z,50.39
2019-03-08T14:16:08.994Z,50.30
2019-03-08T14:18:40.055Z,50.33
2019-03-08T14:21:11.021Z,50.27
2019-03-08T14:23:42.126Z,50.20
2019-03-08T14:26:14.089Z,50.33
2019-03-08T14:28:45.165Z,50.32
2019-03-08T14:31:23.529Z,50.16
2019-03-08T14:33:54.896Z,50.29
2019-03-08T14:36:26.163Z,50.25
2019-03-08T14:38:57.298Z,50.43
2019-03-08T14:41:47.836Z,50.76
2019-03-08T14:44:26.463Z,50.85
2019-03-08T14:46:57.579Z,50.93
2019-03-08T14:49:28.680Z,50.64
2019-03-08T14:51:59.792Z,50.72
2019-03-08T14:54:30.741Z,50.87
2019-03-08T14:57:01.839Z,51.10
2019-03-08T14:59:32.933Z,51.21
2019-03-08T15:02:03.977Z,51.12
2019-03-08T15:04:35.008Z,51.32
2019-03-08T15:07:06.023Z,51.56
2019-03-08T15:09:37.167Z,51.75
2019-03-08T15:12:16.314Z,51.76
2019-03-08T15:14:41.349Z,51.78
2019-03-08T15:17:13.357Z,51.91
2019-03-08T15:19:45.414Z,51.99
2019-03-08T15:22:17.560Z,52.20
2019-03-08T15:24:48.723Z,52.19
2019-03-08T15:27:22.990Z,52.31
2019-03-08T15:29:54.901Z,52.36
2019-03-08T15:32:29.153Z,52.62
2019-03-08T15:35:01.709Z,52.91
2019-03-08T15:37:33.053Z,52.91
2019-03-08T15:40:05.092Z,52.94
2019-03-08T15:42:36.908Z,53.13
2019-03-08T15:45:10.665Z,53.31
2019-03-08T15:47:41.689Z,53.57
2019-03-08T15:50:15.377Z,53.68
2019-03-08T15:52:46.638Z,53.85
2019-03-08T15:55:18.887Z,54.08
2019-03-08T15:57:50.271Z,54.31
2019-03-08T16:00:22.188Z,54.37
2019-03-08T16:02:55.621Z,54.48
2019-03-08T16:05:28.181Z,54.60
2019-03-08T16:08:01.854Z,54.86
2019-03-08T16:10:32.138Z,54.86
2019-03-08T16:13:03.631Z,54.82
2019-03-08T16:15:47.547Z,54.98
2019-03-08T16:18:23.359Z,55.26
2019-03-08T16:20:57.605Z,55.05
2019-03-08T16:23:32.576Z,55.35
2019-03-08T16:26:09.869Z,55.30
2019-03-08T16:28:47.309Z,55.16
2019-03-08T16:31:35.440Z,55.33
2019-03-08T16:34:14.458Z,54.90
2019-03-08T16:36:55.307Z,54.95
2019-03-08T16:39:31.715Z,55.03
2019-03-08T16:42:15.370Z,55.00
2019-03-08T16:44:52.654Z,54.86
2019-03-08T16:47:47.043Z,55.00
2019-03-08T16:50:22.289Z,54.82
2019-03-08T16:53:00.173Z,54.75
2019-03-08T16:55:36.700Z,54.84
2019-03-08T16:58:25.503Z,55.00
2019-03-08T17:01:11.129Z,54.89
2019-03-08T17:03:59.455Z,54.71
2019-03-08T17:06:40.188Z,54.65
2019-03-08T17:09:17.596Z,54.67
2019-03-08T17:11:53.711Z,54.60
2019-03-08T17:14:35.357Z,54.59
2019-03-08T17:17:27.268Z,54.85
2019-03-08T17:20:07.150Z,54.34
2019-03-08T17:22:42.942Z,54.50
2019-03-08T17:25:23.632Z,54.33
2019-03-08T17:28:10.081Z,53.72
2019-03-08T17:30:44.370Z,53.78
2019-03-08T17:33:37.691Z,53.57
2019-03-08T17:36:20.054Z,53.24
2019-03-08T17:38:54.967Z,52.32
2019-03-08T17:41:32.483Z,52.26
2019-03-08T17:44:20.483Z,51.76
2019-03-08T17:46:56.133Z,51.52
2019-03-08T17:49:46.527Z,51.66
2019-03-08T17:52:25.601Z,51.43
2019-03-08T17:55:04.660Z,51.54
2019-03-08T17:57:55.562Z,51.83
2019-03-08T18:00:29.896Z,51.79
2019-03-08T18:03:11.671Z,51.94
2019-03-08T18:05:49.631Z,51.86
2019-03-08T18:08:25.164Z,52.00
2019-03-08T18:11:09.740Z,52.04
2019-03-08T18:13:46.850Z,53.39
2019-03-08T18:16:36.546Z,55.05
2019-03-08T18:19:28.311Z,55.72
2019-03-08T18:22:14.419Z,56.25
2019-03-08T18:25:03.995Z,57.19
2019-03-08T18:27:42.211Z,56.81
2019-03-08T18:30:34.732Z,59.27
2019-03-08T18:33:11.755Z,61.56
2019-03-08T18:36:11.963Z,61.71
2019-03-08T18:38:46.668Z,62.43
2019-03-08T18:41:43.693Z,63.21
2019-03-08T18:44:19.887Z,64.16
2019-03-08T18:46:58.556Z,64.07
2019-03-08T18:49:38.545Z,65.20
2019-03-08T18:52:13.148Z,65.53
2019-03-08T18:54:53.897Z,65.97
2019-03-08T18:57:27.629Z,66.58
2019-03-08T19:00:00.635Z,66.56
2019-03-08T19:02:33.375Z,65.53
2019-03-08T19:05:08.088Z,66.13
2019-03-08T19:07:52.075Z,66.14
2019-03-08T19:10:32.396Z,65.68
2019-03-08T19:13:05.139Z,66.42
2019-03-08T19:15:40.829Z,66.72
2019-03-08T19:18:30.052Z,66.73
2019-03-08T19:21:11.899Z,67.46
2019-03-08T19:23:44.566Z,68.45
2019-03-08T19:26:19.958Z,68.70
2019-03-08T19:28:52.675Z,69.30
2019-03-08T19:31:29.529Z,69.69
2019-03-08T19:34:15.389Z,69.58
2019-03-08T19:37:06.593Z,69.66
2019-03-08T19:39:39.326Z,69.71
2019-03-08T19:42:14.835Z,69.76
2019-03-08T19:44:53.244Z,69.57
2019-03-08T19:47:37.750Z,68.47
2019-03-08T19:50:11.804Z,67.68
2019-03-08T19:52:44.669Z,67.57
2019-03-08T19:55:17.473Z,68.06
2019-03-08T19:57:54.405Z,68.09
2019-03-08T20:00:44.399Z,67.21
2019-03-08T20:03:20.515Z,67.33
2019-03-08T20:06:05.287Z,67.74
2019-03-08T20:08:47.556Z,67.92
2019-03-08T20:11:32.514Z,67.91
2019-03-08T20:14:25.320Z,68.34
2019-03-08T20:17:04.651Z,68.70
2019-03-08T20:19:55.293Z,67.45
2019-03-08T20:22:29.098Z,67.50
2019-03-08T20:25:19.935Z,67.28
2019-03-08T20:28:00.075Z,67.13
2019-03-08T20:30:49.447Z,67.22
2019-03-08T20:33:44.559Z,67.32
2019-03-08T20:36:39.017Z,67.22
2019-03-08T20:39:33.610Z,67.12
2019-03-08T20:42:09.316Z,66.90
2019-03-08T20:44:44.568Z,66.71
2019-03-08T20:47:36.176Z,66.67
2019-03-08T20:50:20.861Z,66.67
2019-03-08T20:53:01.271Z,66.70
2019-03-08T20:55:42.668Z,66.32
2019-03-08T20:58:16.137Z,66.05
2019-03-08T21:00:53.866Z,65.50
2019-03-08T21:03:41.778Z,65.56
2019-03-08T21:09:21.701Z,64.21
2019-03-08T21:14:51.931Z,64.08
2019-03-08T21:17:38.494Z,63.39
2019-03-08T21:20:28.917Z,62.55
2019-03-08T21:23:01.855Z,62.16
2019-03-08T21:25:42.406Z,61.55
2019-03-08T21:28:20.642Z,60.96
2019-03-08T21:30:55.660Z,60.84
2019-03-08T21:33:26.892Z,60.02
2019-03-08T21:35:59.997Z,60.16
2019-03-08T21:38:33.384Z,60.60
2019-03-08T21:41:04.747Z,59.82
2019-03-08T21:43:46.998Z,60.45
2019-03-08T21:46:27.256Z,60.26
2019-03-08T21:49:00.345Z,59.99
2019-03-08T21:51:33.598Z,59.37
2019-03-08T21:54:26.180Z,59.72
2019-03-08T21:57:18.305Z,59.91
2019-03-08T22:00:26.087Z,59.85
2019-03-08T22:03:08.260Z,59.74
2019-03-08T22:05:43.410Z,59.95
2019-03-08T22:08:17.761Z,60.17
2019-03-08T22:11:05.949Z,59.80
2019-03-08T22:13:41.233Z,59.03
2019-03-08T22:16:12.323Z,58.62
2019-03-08T22:18:43.439Z,58.40
2019-03-08T22:21:15.262Z,58.58
2019-03-08T22:23:49.242Z,58.26
2019-03-08T22:26:20.222Z,58.45
2019-03-08T22:28:54.355Z,58.60
2019-03-08T22:31:25.275Z,58.29
2019-03-08T22:33:56.301Z,58.18
2019-03-08T22:36:27.494Z,58.46
2019-03-08T22:38:59.336Z,58.27
2019-03-08T22:41:30.461Z,58.63
2019-03-08T22:44:01.419Z,58.34
2019-03-08T22:46:32.342Z,58.21
2019-03-08T22:49:06.047Z,57.68
2019-03-08T22:51:37.093Z,58.28
2019-03-08T22:54:08.257Z,58.08
2019-03-08T22:56:39.274Z,58.07
2019-03-08T22:59:10.547Z,58.14
2019-03-08T23:01:43.064Z,58.01
2019-03-08T23:04:15.392Z,58.00
2019-03-08T23:06:51.216Z,58.04
2019-03-08T23:09:24.103Z,58.06
2019-03-08T23:11:57.051Z,58.47
2019-03-08T23:14:29.739Z,58.73
2019-03-08T23:17:00.714Z,58.54
2019-03-08T23:19:33.433Z,58.30
2019-03-08T23:22:04.368Z,58.37
2019-03-08T23:24:37.004Z,58.45
2019-03-08T23:27:09.552Z,58.90
2019-03-08T23:29:44.907Z,58.80
2019-03-08T23:32:22.161Z,58.64
2019-03-08T23:34:53.095Z,58.36
2019-03-08T23:37:27.485Z,58.79
2019-03-08T23:39:59.369Z,58.60
2019-03-08T23:42:35.073Z,58.35
2019-03-08T23:45:10.489Z,57.85
2019-03-08T23:47:41.471Z,58.44
2019-03-08T23:50:12.392Z,58.76
2019-03-08T23:52:45.228Z,58.61
2019-03-08T23:55:16.287Z,58.62
2019-03-08T23:57:47.549Z,59.04
